Time;durP1;ratioP1;P1;durP2;ratioP2;P2;SDS_P1;SDS_P2;PMS_P1;PMS_P2;Temp;Humidity;BMP_temperature;BMP_pressure;BME280_temperature;BME280_humidity;BME280_pressure;Samples;Min_cycle;Max_cycle;Signal;HPM_P1;HPM_P2
2023/10/21 00:00:27;;;;;;;22.05;11.15;;;;;;;11.90;100.00;98084.66;5043080;28;20028;-91
2023/10/21 00:02:53;;;;;;;27.65;11.32;;;;;;;11.80;100.00;98088.78;5055851;28;20078;-91
2023/10/21 00:05:18;;;;;;;20.80;10.32;;;;;;;11.86;100.00;98096.22;5052862;28;20048;-92
2023/10/21 00:07:45;;;;;;;22.85;9.93;;;;;;;11.91;100.00;98096.47;5068257;28;20028;-92
2023/10/21 00:10:11;;;;;;;39.13;12.85;;;;;;;11.92;100.00;98096.28;5067849;28;20086;-92
2023/10/21 00:12:38;;;;;;;19.30;9.95;;;;;;;11.88;100.00;98105.91;5065736;28;20024;-91
2023/10/21 00:15:08;;;;;;;32.17;10.30;;;;;;;11.87;100.00;98097.88;5072020;28;20425;-92
2023/10/21 00:17:34;;;;;;;22.27;10.32;;;;;;;11.83;100.00;98108.41;5059383;28;20126;-91
2023/10/21 00:20:01;;;;;;;20.52;9.55;;;;;;;11.88;100.00;98110.56;5071064;28;20075;-92
2023/10/21 00:22:26;;;;;;;22.63;11.38;;;;;;;11.89;100.00;98113.09;5071490;28;20026;-92
2023/10/21 00:24:53;;;;;;;21.52;8.55;;;;;;;11.85;100.00;98122.75;5070589;28;20074;-91
2023/10/21 00:27:20;;;;;;;30.30;9.35;;;;;;;11.76;100.00;98123.97;5039225;28;20081;-91
2023/10/21 00:29:45;;;;;;;27.40;9.35;;;;;;;11.84;100.00;98126.56;5052979;28;20029;-91
2023/10/21 00:32:11;;;;;;;16.02;8.02;;;;;;;11.84;100.00;98120.22;5056432;28;20039;-92
2023/10/21 00:34:39;;;;;;;20.77;8.82;;;;;;;11.78;100.00;98127.34;5070163;28;20040;-91
2023/10/21 00:37:05;;;;;;;15.10;7.57;;;;;;;11.74;100.00;98137.88;5077788;28;20098;-92
2023/10/21 00:39:35;;;;;;;27.73;9.23;;;;;;;11.79;100.00;98142.75;5082504;28;20033;-91
2023/10/21 00:42:06;;;;;;;28.80;8.35;;;;;;;11.78;100.00;98141.06;5081904;28;20045;-92
2023/10/21 00:44:32;;;;;;;16.35;8.20;;;;;;;11.79;100.00;98150.97;5074942;28;20097;-92
2023/10/21 00:46:59;;;;;;;30.10;9.07;;;;;;;11.75;100.00;98155.16;5069001;28;20032;-92
2023/10/21 00:49:31;;;;;;;15.82;8.52;;;;;;;11.74;100.00;98159.78;5071499;28;20036;-92
2023/10/21 00:51:59;;;;;;;25.33;8.15;;;;;;;11.74;100.00;98167.16;5076749;28;20108;-92
2023/10/21 00:54:27;;;;;;;17.45;7.57;;;;;;;11.72;100.00;98163.75;5060252;28;20458;-92
2023/10/21 00:56:53;;;;;;;14.32;7.18;;;;;;;11.82;100.00;98171.66;5059405;28;20485;-93
2023/10/21 00:59:20;;;;;;;17.23;7.32;;;;;;;11.85;100.00;98172.09;5077191;28;20371;-92
2023/10/21 01:01:46;;;;;;;15.27;7.75;;;;;;;11.85;100.00;98171.28;5059999;28;20032;-92
2023/10/21 01:04:16;;;;;;;22.13;7.45;;;;;;;11.76;100.00;98167.81;5090793;28;20028;-91
2023/10/21 01:06:43;;;;;;;16.33;7.53;;;;;;;11.81;100.00;98172.72;5076525;28;20479;-93
2023/10/21 01:09:10;;;;;;;18.58;7.63;;;;;;;11.89;100.00;98187.13;5040278;28;20120;-80
2023/10/21 01:11:37;;;;;;;24.35;7.97;;;;;;;11.89;100.00;98186.28;5070938;28;20383;-80
2023/10/21 01:14:03;;;;;;;19.75;7.78;;;;;;;11.84;100.00;98188.75;5052698;28;20101;-79
2023/10/21 01:16:28;;;;;;;20.77;7.28;;;;;;;11.90;100.00;98196.19;5051255;28;20490;-80
2023/10/21 01:18:54;;;;;;;21.25;8.10;;;;;;;11.80;100.00;98196.53;5050690;28;20032;-80
2023/10/21 01:21:19;;;;;;;11.35;6.95;;;;;;;11.86;100.00;98195.75;5049518;28;20033;-80
2023/10/21 01:23:45;;;;;;;22.25;8.43;;;;;;;11.82;100.00;98199.06;5061298;28;20052;-80
2023/10/21 01:26:11;;;;;;;20.55;7.75;;;;;;;11.71;100.00;98194.97;5037398;28;20029;-80
2023/10/21 01:28:36;;;;;;;20.08;8.50;;;;;;;11.78;100.00;98201.38;5069736;28;20358;-80
2023/10/21 01:31:02;;;;;;;13.48;7.50;;;;;;;11.90;100.00;98204.44;5047725;28;20524;-79
2023/10/21 01:33:29;;;;;;;15.98;7.53;;;;;;;11.92;100.00;98205.09;5053572;28;20511;-80
2023/10/21 01:35:55;;;;;;;17.38;7.18;;;;;;;11.94;100.00;98208.53;5069233;28;20036;-79
2023/10/21 01:38:21;;;;;;;20.00;7.95;;;;;;;11.92;100.00;98211.47;5038470;28;20104;-80
2023/10/21 01:40:47;;;;;;;17.23;7.75;;;;;;;12.00;100.00;98207.72;5052727;28;20037;-80
2023/10/21 01:43:14;;;;;;;12.38;7.65;;;;;;;11.97;100.00;98210.88;5067175;28;20032;-80
2023/10/21 01:45:40;;;;;;;15.40;7.47;;;;;;;12.00;100.00;98202.22;5051084;28;20035;-80
2023/10/21 01:48:06;;;;;;;23.30;7.60;;;;;;;12.00;100.00;98207.72;5036954;28;20029;-80
2023/10/21 01:50:32;;;;;;;18.63;8.85;;;;;;;12.02;100.00;98218.50;5065924;28;20031;-80
2023/10/21 01:52:58;;;;;;;24.67;8.45;;;;;;;12.02;100.00;98218.50;5049263;28;20029;-80
2023/10/21 01:55:24;;;;;;;19.10;7.65;;;;;;;12.06;100.00;98222.56;5066822;28;20059;-80
2023/10/21 01:57:49;;;;;;;17.63;8.40;;;;;;;12.03;100.00;98222.94;5069374;28;20024;-80
2023/10/21 02:00:21;;;;;;;16.10;8.85;;;;;;;12.06;100.00;98228.03;5053177;28;20044;-79
2023/10/21 02:02:52;;;;;;;16.23;8.85;;;;;;;12.06;100.00;98222.56;5066017;28;20651;-80
2023/10/21 02:05:18;;;;;;;19.52;9.70;;;;;;;12.03;100.00;98229.25;5051558;28;20036;-79
2023/10/21 02:07:44;;;;;;;24.25;8.60;;;;;;;12.06;100.00;98239.00;5067313;28;20047;-79
2023/10/21 02:10:09;;;;;;;21.73;9.63;;;;;;;12.06;100.00;98231.63;5063294;28;20040;-79
2023/10/21 02:12:36;;;;;;;19.30;9.85;;;;;;;12.02;100.00;98237.69;5068945;28;20505;-80
2023/10/21 02:15:02;;;;;;;18.67;9.20;;;;;;;12.16;100.00;98233.19;5048486;28;20032;-80
2023/10/21 02:17:27;;;;;;;13.43;8.45;;;;;;;12.20;100.00;98226.25;5054144;28;20402;-80
2023/10/21 02:19:56;;;;;;;18.88;8.77;;;;;;;12.27;100.00;98240.91;5070101;28;20120;-80
2023/10/21 02:22:26;;;;;;;28.20;9.00;;;;;;;12.30;100.00;98237.75;5069102;28;20034;-80
2023/10/21 02:24:53;;;;;;;15.60;8.30;;;;;;;12.29;100.00;98253.34;5051616;28;20082;-79
2023/10/21 02:27:19;;;;;;;18.17;9.80;;;;;;;12.30;100.00;98256.97;5069901;28;20027;-80
2023/10/21 02:29:45;;;;;;;18.17;9.07;;;;;;;12.31;100.00;98245.78;5067945;28;20023;-80
2023/10/21 02:32:11;;;;;;;20.25;9.68;;;;;;;12.36;100.00;98252.56;5035068;28;20040;-80
2023/10/21 02:34:37;;;;;;;18.45;9.25;;;;;;;12.37;100.00;98257.03;5054007;28;20086;-80
2023/10/21 02:37:03;;;;;;;20.20;8.80;;;;;;;12.45;100.00;98265.13;5036418;28;20045;-80
2023/10/21 02:39:29;;;;;;;18.83;8.65;;;;;;;12.48;100.00;98265.56;5049104;28;20044;-80
2023/10/21 02:41:54;;;;;;;18.05;9.20;;;;;;;12.55;100.00;98270.25;5066393;28;20032;-80
2023/10/21 02:44:20;;;;;;;19.83;9.27;;;;;;;12.56;100.00;98275.56;5029977;28;20461;-80
2023/10/21 02:46:45;;;;;;;12.18;7.97;;;;;;;12.59;100.00;98283.41;5064098;28;20090;-80
2023/10/21 02:49:11;;;;;;;16.15;8.77;;;;;;;12.62;100.00;98282.97;5035237;28;20380;-80
2023/10/21 02:51:36;;;;;;;15.27;9.52;;;;;;;12.55;100.00;98282.09;5069604;28;20036;-80
2023/10/21 02:54:03;;;;;;;17.67;8.82;;;;;;;12.59;100.00;98283.41;5032012;28;20547;-80
2023/10/21 02:56:30;;;;;;;11.57;9.13;;;;;;;12.55;100.00;98281.25;5047416;28;20036;-80
2023/10/21 02:58:55;;;;;;;13.40;8.45;;;;;;;12.57;100.00;98288.22;5063071;28;20219;-80
2023/10/21 03:01:21;;;;;;;20.70;8.65;;;;;;;12.65;100.00;98300.97;5033683;28;20146;-80
2023/10/21 03:03:51;;;;;;;15.13;9.52;;;;;;;12.64;100.00;98299.25;5051162;28;20043;-80
2023/10/21 03:06:23;;;;;;;18.20;8.52;;;;;;;12.62;100.00;98301.34;5068538;28;20082;-81
2023/10/21 03:08:48;;;;;;;18.45;8.65;;;;;;;12.62;100.00;98306.84;5052105;28;20047;-81
2023/10/21 03:11:14;;;;;;;18.55;9.15;;;;;;;12.63;100.00;98309.41;5060256;28;20020;-80
2023/10/21 03:13:40;;;;;;;16.10;9.13;;;;;;;12.64;100.00;98313.84;5068618;28;20082;-80
2023/10/21 03:16:07;;;;;;;14.45;8.82;;;;;;;12.63;100.00;98309.41;5063824;28;20078;-80
2023/10/21 03:18:33;;;;;;;17.73;8.70;;;;;;;12.64;100.00;98312.97;5064881;28;20029;-80
2023/10/21 03:20:59;;;;;;;12.57;8.63;;;;;;;12.66;100.00;98317.25;5068876;28;20036;-80
2023/10/21 03:23:25;;;;;;;15.73;9.77;;;;;;;12.63;100.00;98316.78;5047835;28;20039;-80
2023/10/21 03:25:55;;;;;;;17.73;9.65;;;;;;;12.71;100.00;98330.38;5071299;28;20092;-80
2023/10/21 03:28:22;;;;;;;18.50;9.48;;;;;;;12.72;100.00;98326.56;5037132;28;20055;-92
2023/10/21 03:30:48;;;;;;;19.55;8.38;;;;;;;12.79;100.00;98335.72;5070255;28;20527;-93
2023/10/21 03:33:13;;;;;;;19.38;9.02;;;;;;;12.80;100.00;98334.66;5055789;28;20451;-93
2023/10/21 03:35:39;;;;;;;19.60;9.57;;;;;;;12.81;100.00;98338.28;5050807;28;20128;-93
2023/10/21 03:38:06;;;;;;;15.80;9.15;;;;;;;12.82;100.00;98339.94;5039528;28;20136;-93
2023/10/21 03:40:31;;;;;;;18.73;10.00;;;;;;;12.74;100.00;98343.72;5044600;28;20033;-93
2023/10/21 03:42:57;;;;;;;18.02;9.55;;;;;;;12.82;100.00;98346.31;5075169;28;20243;-92
2023/10/21 03:45:23;;;;;;;18.45;9.73;;;;;;;12.81;100.00;98349.25;5050444;28;20102;-93
2023/10/21 03:47:49;;;;;;;22.30;9.68;;;;;;;12.82;100.00;98353.69;5068167;28;20055;-93
2023/10/21 03:50:14;;;;;;;19.70;9.70;;;;;;;12.81;100.00;98360.25;5067534;28;20056;-93
2023/10/21 03:52:41;;;;;;;17.98;9.35;;;;;;;12.82;100.00;98364.66;5064858;28;20029;-93
2023/10/21 03:55:07;;;;;;;16.55;10.05;;;;;;;12.78;100.00;98369.72;5075407;28;20037;-94
2023/10/21 03:57:33;;;;;;;21.52;10.45;;;;;;;12.82;100.00;98375.66;5060429;28;20055;-94
2023/10/21 04:00:00;;;;;;;25.13;10.85;;;;;;;12.85;100.00;98376.13;5056133;28;20107;-94
2023/10/21 04:02:26;;;;;;;19.27;10.70;;;;;;;12.80;100.00;98375.84;5039477;28;20041;-93
2023/10/21 04:04:52;;;;;;;18.35;9.82;;;;;;;12.84;100.00;98384.56;5054857;28;20645;-94
2023/10/21 04:07:18;;;;;;;27.63;9.98;;;;;;;12.82;100.00;98390.25;5072347;28;20123;-94
2023/10/21 04:09:43;;;;;;;23.05;10.48;;;;;;;12.78;100.00;98388.94;5055448;28;20040;-94
2023/10/21 04:12:10;;;;;;;20.85;9.88;;;;;;;12.79;100.00;98393.38;5065381;28;20064;-94
2023/10/21 04:14:37;;;;;;;15.48;9.80;;;;;;;12.74;100.00;98403.25;5074258;28;20362;-93
2023/10/21 04:17:03;;;;;;;22.15;9.40;;;;;;;12.74;100.00;98400.50;5071587;28;20024;-93
2023/10/21 04:19:28;;;;;;;26.13;11.65;;;;;;;12.74;100.00;98409.59;5055379;28;20028;-92
2023/10/21 04:21:56;;;;;;;20.58;11.00;;;;;;;12.75;100.00;98400.31;5056012;28;20036;-92
2023/10/21 04:24:23;;;;;;;18.33;10.38;;;;;;;12.75;100.00;98408.53;5072775;28;20471;-93
2023/10/21 04:26:50;;;;;;;20.95;12.32;;;;;;;12.87;100.00;98425.34;5066149;28;20162;-92
2023/10/21 04:29:16;;;;;;;25.35;10.98;;;;;;;12.87;100.00;98419.84;5067232;28;20064;-92
2023/10/21 04:31:43;;;;;;;20.52;9.70;;;;;;;12.86;100.00;98420.91;5072694;28;20116;-93
2023/10/21 04:34:08;;;;;;;24.90;10.07;;;;;;;12.88;100.00;98427.06;5072620;28;20073;-92
2023/10/21 04:36:33;;;;;;;24.00;9.27;;;;;;;12.94;100.00;98425.44;5072073;28;20028;-92
2023/10/21 04:39:00;;;;;;;21.42;9.55;;;;;;;12.97;100.00;98433.25;5047942;28;20029;-80
2023/10/21 04:41:27;;;;;;;24.25;9.20;;;;;;;12.94;100.00;98440.00;5046799;28;20025;-81
2023/10/21 04:43:52;;;;;;;23.73;9.80;;;;;;;13.00;100.00;98449.34;5050827;28;20463;-81
2023/10/21 04:46:18;;;;;;;24.73;10.02;;;;;;;13.00;100.00;98452.09;5044270;28;20028;-80
2023/10/21 04:48:44;;;;;;;21.00;8.68;;;;;;;13.02;100.00;98450.00;5049444;28;20040;-80
2023/10/21 04:51:12;;;;;;;22.67;8.77;;;;;;;13.06;100.00;98446.66;5048591;28;20028;-80
2023/10/21 04:53:38;;;;;;;21.55;8.30;;;;;;;13.05;100.00;98444.97;5066408;28;20047;-80
2023/10/21 04:56:04;;;;;;;18.40;8.25;;;;;;;13.04;100.00;98439.69;5064305;28;20029;-81
2023/10/21 04:58:31;;;;;;;23.73;8.75;;;;;;;13.08;100.00;98454.69;5033993;28;20028;-80
2023/10/21 05:00:56;;;;;;;12.80;7.60;;;;;;;13.04;100.00;98458.91;5064882;28;20051;-80
2023/10/21 05:03:22;;;;;;;14.40;7.63;;;;;;;13.03;100.00;98458.03;5045636;28;20490;-80
2023/10/21 05:05:47;;;;;;;22.58;7.85;;;;;;;13.02;100.00;98463.75;5050989;28;20029;-80
2023/10/21 05:08:13;;;;;;;15.25;7.53;;;;;;;13.03;100.00;98463.53;5034264;28;20020;-81
2023/10/21 05:10:38;;;;;;;17.63;8.15;;;;;;;12.99;100.00;98477.88;5050251;28;20047;-81
2023/10/21 05:13:04;;;;;;;17.02;8.02;;;;;;;12.98;100.00;98468.75;5034845;28;20124;-81
2023/10/21 05:15:29;;;;;;;21.58;7.53;;;;;;;12.88;100.00;98477.31;5048542;28;20048;-81
2023/10/21 05:17:55;;;;;;;20.25;8.00;;;;;;;12.86;100.00;98476.69;5023954;28;20024;-81
2023/10/21 05:20:22;;;;;;;15.45;7.10;;;;;;;12.85;100.00;98485.97;5043710;28;20398;-81
2023/10/21 05:22:48;;;;;;;18.20;7.45;;;;;;;12.86;100.00;98493.16;5049006;28;20037;-81
2023/10/21 05:25:13;;;;;;;26.17;7.70;;;;;;;12.83;100.00;98492.69;5053715;28;20032;-82
2023/10/21 05:27:39;;;;;;;25.42;8.07;;;;;;;12.83;100.00;98503.69;5045808;28;20475;-82
2023/10/21 05:30:05;;;;;;;12.90;7.60;;;;;;;12.81;100.00;98505.78;5052911;28;20495;-81
2023/10/21 05:32:30;;;;;;;16.15;6.75;;;;;;;12.81;100.00;98512.13;5054343;28;20379;-81
2023/10/21 05:34:56;;;;;;;17.02;6.95;;;;;;;12.82;100.00;98521.19;5038726;28;20063;-81
2023/10/21 05:37:21;;;;;;;19.23;7.45;;;;;;;12.79;100.00;98513.34;5034553;28;20047;-81
2023/10/21 05:39:46;;;;;;;18.80;8.80;;;;;;;12.78;100.00;98519.91;5062637;28;20406;-81
2023/10/21 05:42:12;;;;;;;19.55;8.27;;;;;;;12.82;100.00;98529.44;5049032;28;20518;-81
2023/10/21 05:44:38;;;;;;;21.45;9.52;;;;;;;12.82;100.00;98521.19;5068374;28;20036;-82
2023/10/21 05:47:03;;;;;;;22.92;8.32;;;;;;;12.86;100.00;98530.75;5064720;28;20138;-82
2023/10/21 05:49:30;;;;;;;15.50;7.32;;;;;;;12.93;100.00;98525.34;5052187;28;20112;-93
2023/10/21 05:51:56;;;;;;;16.05;8.00;;;;;;;13.02;100.00;98535.19;5041690;28;20032;-92
2023/10/21 05:54:21;;;;;;;20.48;8.30;;;;;;;13.03;100.00;98539.59;5058066;28;20116;-94
2023/10/21 05:56:49;;;;;;;25.15;8.43;;;;;;;13.03;100.00;98545.94;5074010;28;20078;-93
2023/10/21 05:59:16;;;;;;;13.93;7.00;;;;;;;13.11;100.00;98547.72;5057405;28;20029;-93
2023/10/21 06:01:42;;;;;;;23.02;7.88;;;;;;;13.11;100.00;98547.72;5074688;28;20025;-96
2023/10/21 06:04:07;;;;;;;12.73;6.75;;;;;;;13.19;100.00;98557.75;5041826;28;20043;-92
2023/10/21 06:06:33;;;;;;;21.45;7.70;;;;;;;13.25;100.00;98554.22;5056224;28;20068;-93
2023/10/21 06:08:58;;;;;;;16.63;7.20;;;;;;;13.20;100.00;98559.47;5069155;28;20041;-94
2023/10/21 06:11:27;;;;;;;18.38;7.32;;;;;;;13.28;100.00;98575.81;5070947;28;20045;-93
2023/10/21 06:13:54;;;;;;;15.25;6.75;;;;;;;13.31;100.00;98571.81;5063813;28;20036;-92
2023/10/21 06:16:19;;;;;;;21.45;6.80;;;;;;;13.32;100.00;98585.38;5061818;28;20051;-90
2023/10/21 06:18:45;;;;;;;13.30;6.70;;;;;;;13.38;100.00;98583.75;5056495;28;20922;-92
2023/10/21 06:21:13;;;;;;;20.90;5.93;;;;;;;13.46;100.00;98599.25;5042355;28;20100;-93
2023/10/21 06:23:38;;;;;;;12.95;6.43;;;;;;;13.41;100.00;98599.84;5057435;28;20024;-93
2023/10/21 06:26:11;;;;;;;14.48;5.95;;;;;;;13.46;100.00;98597.34;5041461;28;20043;-96
2023/10/21 06:28:38;;;;;;;11.82;5.30;;;;;;;13.51;100.00;98603.16;5077440;28;20028;-95
2023/10/21 06:31:04;;;;;;;12.32;5.30;;;;;;;13.55;100.00;98609.94;5055730;28;20292;-96
2023/10/21 06:33:30;;;;;;;12.50;4.97;;;;;;;13.58;100.00;98612.28;5065172;28;20036;-95
2023/10/21 06:44:31;;;;;;;17.30;4.03;;;;;;;13.63;100.00;98625.47;5980799;23;20466;31
2023/10/21 06:46:56;;;;;;;10.77;3.85;;;;;;;13.75;100.00;98637.63;4939297;29;20051;-92
2023/10/21 06:49:22;;;;;;;20.05;3.67;;;;;;;13.71;100.00;98639.09;4940266;29;20050;-95
2023/10/21 06:51:52;;;;;;;17.83;3.85;;;;;;;13.67;100.00;98653.41;4936859;29;20059;-94
2023/10/21 06:54:18;;;;;;;14.45;4.25;;;;;;;13.64;100.00;98659.31;4956543;28;20027;-92
2023/10/21 06:56:47;;;;;;;12.48;3.13;;;;;;;13.79;100.00;98668.34;4933936;29;20093;-94
2023/10/21 06:59:14;;;;;;;11.15;2.72;;;;;;;13.80;100.00;98672.78;4923892;29;20155;-90
2023/10/21 07:01:40;;;;;;;9.55;3.10;;;;;;;13.78;100.00;98681.25;4969216;28;20034;-89
2023/10/21 07:04:10;;;;;;;7.15;2.65;;;;;;;13.88;100.00;98685.56;4948406;28;20039;-90
2023/10/21 07:06:39;;;;;;;6.85;2.25;;;;;;;13.83;100.00;98680.66;4952377;29;20023;-90
2023/10/21 07:09:07;;;;;;;10.38;2.55;;;;;;;13.79;100.00;98682.94;4954444;28;20035;-88
2023/10/21 07:11:32;;;;;;;7.88;1.77;;;;;;;13.84;100.00;98695.25;4954225;29;20027;-94
2023/10/21 07:13:58;;;;;;;7.43;1.83;;;;;;;13.88;100.00;98699.31;4916513;28;20101;-91
2023/10/21 07:16:24;;;;;;;5.90;1.80;;;;;;;13.88;100.00;98713.91;4953873;28;20038;-91
2023/10/21 07:18:49;;;;;;;2.78;1.60;;;;;;;13.81;100.00;98709.38;4952195;28;20032;-90
2023/10/21 07:21:16;;;;;;;3.35;1.17;;;;;;;13.80;100.00;98727.81;4934528;28;20101;-91
2023/10/21 07:23:41;;;;;;;6.45;1.00;;;;;;;13.86;100.00;98740.78;4938642;29;20057;-89
2023/10/21 07:26:07;;;;;;;2.33;0.93;;;;;;;13.87;100.00;98749.88;4949371;28;20471;-89
2023/10/21 07:28:33;;;;;;;2.10;1.08;;;;;;;13.85;100.00;98754.72;4958989;28;20030;-90
2023/10/21 07:31:00;;;;;;;2.30;0.88;;;;;;;13.80;100.00;98771.81;4939039;28;20402;-89
2023/10/21 07:33:27;;;;;;;0.80;0.55;;;;;;;13.72;100.00;98777.44;4958232;28;20038;-90
2023/10/21 07:35:53;;;;;;;2.78;0.60;;;;;;;13.73;100.00;98785.50;4972443;28;20031;-90
2023/10/21 07:38:20;;;;;;;0.85;0.40;;;;;;;13.65;100.00;98787.50;4943363;28;20480;-90
2023/10/21 07:40:46;;;;;;;1.75;0.47;;;;;;;13.73;100.00;98792.91;4954823;28;20087;-90
2023/10/21 07:43:13;;;;;;;3.63;0.68;;;;;;;13.65;100.00;98798.50;4946891;28;20031;-90
2023/10/21 07:45:40;;;;;;;2.63;0.40;;;;;;;13.73;100.00;98801.16;4938856;28;20054;-90
2023/10/21 07:48:07;;;;;;;1.67;0.50;;;;;;;13.76;100.00;98807.13;4971849;28;20086;-89
2023/10/21 07:50:33;;;;;;;3.33;0.52;;;;;;;13.80;100.00;98818.56;4975351;28;20027;-90
2023/10/21 07:53:00;;;;;;;3.33;0.50;;;;;;;13.84;100.00;98832.78;4957667;28;20031;-90
2023/10/21 07:55:26;;;;;;;5.30;0.75;;;;;;;13.89;100.00;98817.44;4961826;28;20031;-92
2023/10/21 07:57:51;;;;;;;1.08;0.50;;;;;;;13.91;100.00;98829.09;4967299;28;20019;-92
2023/10/21 08:00:17;;;;;;;2.17;0.50;;;;;;;13.81;100.00;98835.91;4957937;28;20034;-90
2023/10/21 08:02:42;;;;;;;3.20;0.50;;;;;;;13.77;100.00;98841.84;4969787;28;20499;-90
2023/10/21 08:05:08;;;;;;;2.05;0.50;;;;;;;13.70;100.00;98840.88;4944888;28;20030;-90
2023/10/21 08:07:34;;;;;;;4.30;0.73;;;;;;;13.75;100.00;98843.91;4949815;28;20065;-90
2023/10/21 08:10:00;;;;;;;0.68;0.40;;;;;;;13.67;100.00;98848.66;4961372;28;20054;-81
2023/10/21 08:12:25;;;;;;;2.50;0.55;;;;;;;13.65;100.00;98854.34;4936915;28;20085;-81
2023/10/21 08:14:51;;;;;;;1.73;0.70;;;;;;;13.62;100.00;98864.88;4954248;28;20038;-81
2023/10/21 08:17:17;;;;;;;1.95;0.40;;;;;;;13.41;100.00;98872.88;4960377;28;20030;-80
2023/10/21 08:19:43;;;;;;;0.77;0.47;;;;;;;13.06;100.00;98879.88;4956631;28;20031;-81
2023/10/21 08:22:10;;;;;;;4.72;0.40;;;;;;;12.91;100.00;98890.84;4952070;28;20031;-81
2023/10/21 08:24:35;;;;;;;2.40;0.30;;;;;;;12.64;100.00;98878.53;4940461;28;20041;-80
2023/10/21 08:27:02;;;;;;;2.55;0.40;;;;;;;12.54;100.00;98883.44;4967744;28;20398;-82
2023/10/21 08:29:28;;;;;;;4.95;0.60;;;;;;;12.51;100.00;98892.91;4967859;28;20038;-81
2023/10/21 08:31:54;;;;;;;1.38;0.40;;;;;;;12.56;100.00;98884.97;4934758;28;20035;-81
2023/10/21 08:34:22;;;;;;;2.58;0.40;;;;;;;12.70;100.00;98894.28;4955149;28;20157;-81
2023/10/21 08:36:48;;;;;;;2.90;0.47;;;;;;;12.68;100.00;98893.63;4969721;28;20034;-80
2023/10/21 08:39:14;;;;;;;2.80;0.45;;;;;;;12.75;100.00;98897.31;4965615;28;20045;-82
2023/10/21 08:41:40;;;;;;;1.67;0.40;;;;;;;12.87;100.00;98900.47;4939813;28;21351;-81
2023/10/21 08:44:08;;;;;;;2.28;0.60;;;;;;;12.98;100.00;98902.78;4938017;28;20034;-81
2023/10/21 08:46:37;;;;;;;2.58;0.40;;;;;;;13.12;100.00;98903.00;4953862;28;20498;-82
2023/10/21 08:49:04;;;;;;;1.60;0.40;;;;;;;13.41;100.00;98908.59;4950864;28;20027;-81
2023/10/21 08:51:32;;;;;;;0.90;0.40;;;;;;;13.57;100.00;98912.19;4953029;28;20043;-81
2023/10/21 08:54:05;;;;;;;3.10;0.47;;;;;;;13.55;100.00;98925.28;4953962;28;20042;-82
2023/10/21 08:56:33;;;;;;;2.60;0.60;;;;;;;13.36;100.00;98922.06;4935163;28;20489;-81
2023/10/21 08:58:59;;;;;;;4.32;0.98;;;;;;;13.45;100.00;98924.72;4954763;28;20038;-81
2023/10/21 09:01:25;;;;;;;3.25;0.40;;;;;;;13.57;100.00;98926.78;4954892;28;20035;-82
2023/10/21 09:03:51;;;;;;;2.92;0.43;;;;;;;13.70;100.00;98939.88;4955860;28;20018;-82
2023/10/21 09:06:17;;;;;;;4.95;0.57;;;;;;;13.89;100.00;98930.22;4949791;28;20086;-81
2023/10/21 09:08:44;;;;;;;3.65;0.60;;;;;;;13.96;100.00;98946.81;4962662;28;20030;-81
2023/10/21 09:11:13;;;;;;;6.10;0.60;;;;;;;14.13;100.00;98940.06;4971885;28;20184;-81
2023/10/21 09:13:40;;;;;;;3.55;0.40;;;;;;;14.39;100.00;98938.69;4973878;28;20035;-81
2023/10/21 09:16:34;;;;;;;2.85;0.60;;;;;;;14.74;100.00;98944.41;4958106;28;20396;-81
2023/10/21 09:19:04;;;;;;;4.75;0.60;;;;;;;14.47;100.00;98957.00;4952298;28;20031;-81
2023/10/21 09:21:38;;;;;;;5.05;0.80;;;;;;;14.80;100.00;98954.63;4969701;28;20052;-81
2023/10/21 09:24:21;;;;;;;5.28;0.60;;;;;;;14.73;100.00;98963.88;4955549;28;20023;-82
2023/10/21 09:26:48;;;;;;;4.60;0.80;;;;;;;14.32;100.00;98970.78;4954663;28;20094;-81
2023/10/21 09:29:18;;;;;;;5.38;0.43;;;;;;;14.04;100.00;98968.72;4960724;28;20034;-81
2023/10/21 09:31:48;;;;;;;1.27;0.40;;;;;;;14.18;100.00;98974.41;4954313;28;20039;-81
2023/10/21 09:34:26;;;;;;;2.15;0.50;;;;;;;14.22;100.00;98982.09;4971873;28;20042;-81
2023/10/21 09:37:05;;;;;;;7.88;0.60;;;;;;;14.21;100.00;98982.28;4966220;28;20088;-81
2023/10/21 09:39:43;;;;;;;4.93;0.50;;;;;;;14.29;100.00;98974.78;4951884;28;20066;-80
2023/10/21 09:42:08;;;;;;;2.47;0.40;;;;;;;14.42;100.00;98978.75;4957894;28;20038;-81
2023/10/21 09:44:38;;;;;;;6.75;0.90;;;;;;;14.28;100.00;98995.09;4957337;28;20043;-81
2023/10/21 09:47:08;;;;;;;7.82;0.70;;;;;;;14.37;100.00;98984.84;4973532;28;20085;-81
2023/10/21 09:49:40;;;;;;;2.50;0.50;;;;;;;14.73;100.00;98983.16;4954087;28;20494;-81
2023/10/21 09:52:09;;;;;;;2.83;0.50;;;;;;;14.91;100.00;98985.50;4965369;28;20043;-81
2023/10/21 09:54:52;;;;;;;3.80;0.85;;;;;;;15.00;100.00;98987.91;4940546;28;20416;-81
2023/10/21 09:57:18;;;;;;;1.17;0.40;;;;;;;14.86;100.00;98983.31;4956274;28;20106;-81
2023/10/21 09:59:46;;;;;;;7.65;0.77;;;;;;;14.66;100.00;98994.13;4938159;28;20051;-80
2023/10/21 10:02:12;;;;;;;1.58;0.38;;;;;;;14.57;100.00;98989.72;4961649;28;20500;-81
2023/10/21 10:04:38;;;;;;;5.78;0.57;;;;;;;14.61;100.00;99010.34;4975730;28;20114;-81
2023/10/21 10:07:08;;;;;;;3.80;0.65;;;;;;;14.76;100.00;99011.19;4956261;28;20141;-80
2023/10/21 10:09:42;;;;;;;7.32;0.60;;;;;;;14.99;100.00;99021.19;4943058;28;20034;-81
2023/10/21 10:12:16;;;;;;;3.38;0.47;;;;;;;15.30;100.00;99014.47;4942239;28;20121;-80
2023/10/21 10:14:43;;;;;;;4.25;0.47;;;;;;;15.27;100.00;99028.69;4972488;28;20030;-81
2023/10/21 10:17:08;;;;;;;5.95;0.75;;;;;;;15.32;100.00;99024.25;4958772;28;20027;-81
2023/10/21 10:19:41;;;;;;;7.38;0.70;;;;;;;15.80;100.00;99026.41;4942880;28;20046;-81
2023/10/21 10:22:29;;;;;;;6.78;0.70;;;;;;;15.47;100.00;99034.38;4953911;28;20049;-81
2023/10/21 10:24:55;;;;;;;3.72;0.70;;;;;;;15.09;100.00;99038.25;4952656;28;20098;-81
2023/10/21 10:27:44;;;;;;;5.65;0.60;;;;;;;14.74;100.00;99042.72;4953955;28;20041;-81
2023/10/21 10:30:19;;;;;;;7.10;0.68;;;;;;;14.84;100.00;99041.38;4969849;28;20035;-81
2023/10/21 10:32:47;;;;;;;5.60;1.08;;;;;;;15.15;100.00;99043.00;4954649;28;20030;-81
2023/10/21 10:35:31;;;;;;;7.13;0.63;;;;;;;15.56;100.00;99045.06;4954572;28;20027;-81
2023/10/21 10:37:59;;;;;;;2.50;0.50;;;;;;;15.91;100.00;99052.59;4954105;28;20041;-81
2023/10/21 10:40:43;;;;;;;5.05;0.60;;;;;;;15.62;100.00;99052.53;4971261;28;20035;-80
2023/10/21 10:43:10;;;;;;;6.40;0.85;;;;;;;15.78;100.00;99056.09;4967094;28;20030;-81
2023/10/21 10:45:39;;;;;;;6.22;0.80;;;;;;;15.74;100.00;99058.38;4953925;28;20062;-81
2023/10/21 10:48:07;;;;;;;4.88;0.80;;;;;;;16.01;100.00;99060.53;4964542;28;20031;-82
2023/10/21 10:50:42;;;;;;;5.82;0.75;;;;;;;16.20;100.00;99067.22;4955363;28;20023;-82
2023/10/21 10:53:15;;;;;;;3.28;0.70;;;;;;;16.09;100.00;99066.75;4972286;28;20073;-82
2023/10/21 10:55:45;;;;;;;5.80;1.17;;;;;;;16.09;100.00;99057.63;4970325;28;20110;-81
2023/10/21 10:58:11;;;;;;;2.22;0.65;;;;;;;16.20;100.00;99079.16;4954797;28;20060;-82
2023/10/21 11:00:39;;;;;;;2.17;0.47;;;;;;;16.40;100.00;99061.81;4955099;28;20038;-82
2023/10/21 11:03:08;;;;;;;4.72;0.88;;;;;;;16.11;100.00;99074.81;4969498;28;20031;-82
2023/10/21 11:05:37;;;;;;;3.78;0.80;;;;;;;16.19;100.00;99068.31;4958360;28;20098;-83
2023/10/21 11:08:04;;;;;;;4.13;0.63;;;;;;;16.10;100.00;99082.25;4952771;28;20516;-83
2023/10/21 11:10:30;;;;;;;8.60;0.93;;;;;;;16.17;100.00;99069.34;4970526;28;20038;-83
2023/10/21 11:12:55;;;;;;;2.63;0.63;;;;;;;15.91;100.00;99082.97;4953471;28;20042;-83
2023/10/21 11:15:22;;;;;;;8.88;0.75;;;;;;;15.55;100.00;99070.94;4953586;28;20042;-82
2023/10/21 11:17:48;;;;;;;4.07;0.70;;;;;;;15.41;100.00;99069.97;4969767;28;20049;-83
2023/10/21 11:20:14;;;;;;;6.70;0.50;;;;;;;15.47;100.00;99073.00;4967167;28;20059;-82
2023/10/21 11:22:41;;;;;;;7.68;1.02;;;;;;;15.54;100.00;99071.97;4953397;28;20902;-83
2023/10/21 11:25:07;;;;;;;7.60;0.70;;;;;;;15.82;100.00;99068.44;4968771;28;20035;-83
2023/10/21 11:27:33;;;;;;;3.33;0.70;;;;;;;15.66;100.00;99068.69;4954881;28;20122;-83